Time;durP1;ratioP1;P1;durP2;ratioP2;P2;SDS_P1;SDS_P2;PMS_P1;PMS_P2;Temp;Humidity;BMP_temperature;BMP_pressure;BME280_temperature;BME280_humidity;BME280_pressure;Samples;Min_cycle;Max_cycle;Signal;HPM_P1;HPM_P2
2023/02/06 00:00:22;;;;;;;11.87;9.70;;;3.10;99.90;;;;;;5072788;28;20275;-63
2023/02/06 00:02:48;;;;;;;11.20;9.47;;;3.10;99.90;;;;;;5072725;28;20571;-63
2023/02/06 00:05:14;;;;;;;7.93;7.53;;;3.00;99.90;;;;;;5072963;28;20663;-63
2023/02/06 00:07:39;;;;;;;7.17;6.77;;;3.00;99.90;;;;;;5072639;28;20186;-63
2023/02/06 00:10:05;;;;;;;10.37;7.60;;;3.00;99.90;;;;;;5072113;28;20197;-63
2023/02/06 00:12:31;;;;;;;14.87;8.67;;;3.00;99.90;;;;;;5072453;28;20182;-63
2023/02/06 00:14:57;;;;;;;8.23;7.63;;;3.00;99.90;;;;;;5072353;28;20580;-63
2023/02/06 00:17:22;;;;;;;8.90;7.77;;;2.90;99.90;;;;;;5072596;28;20192;-64
2023/02/06 00:19:48;;;;;;;10.70;6.83;;;3.00;99.90;;;;;;5070539;28;20563;-63
2023/02/06 00:22:13;;;;;;;9.00;8.33;;;2.90;99.90;;;;;;5072369;28;20710;-63
2023/02/06 00:24:39;;;;;;;9.50;8.47;;;3.00;99.90;;;;;;5072174;28;20209;-63
2023/02/06 00:27:06;;;;;;;13.20;7.67;;;2.90;99.90;;;;;;5072230;28;20166;-63
2023/02/06 00:29:32;;;;;;;15.33;9.97;;;2.90;99.90;;;;;;5071859;28;20285;-63
2023/02/06 00:31:57;;;;;;;9.73;8.27;;;2.90;99.90;;;;;;5071992;28;20178;-63
2023/02/06 00:34:23;;;;;;;13.50;8.73;;;2.80;99.90;;;;;;5072026;28;20178;-63
2023/02/06 00:36:50;;;;;;;10.70;8.77;;;2.70;99.90;;;;;;5072265;28;20174;-63
2023/02/06 00:39:16;;;;;;;8.30;7.50;;;2.60;99.90;;;;;;5071449;28;20205;-63
2023/02/06 00:41:42;;;;;;;11.53;8.30;;;2.60;99.90;;;;;;5072147;28;20173;-63
2023/02/06 00:44:08;;;;;;;16.30;8.23;;;2.60;99.90;;;;;;5070204;28;20569;-63
2023/02/06 00:46:33;;;;;;;25.10;8.77;;;2.60;99.90;;;;;;5072071;28;20598;-63
2023/02/06 00:48:59;;;;;;;28.60;9.17;;;2.60;99.90;;;;;;5071501;28;20170;-63
2023/02/06 00:51:25;;;;;;;10.20;9.23;;;2.70;99.90;;;;;;5071740;28;20287;-63
2023/02/06 00:53:50;;;;;;;13.43;9.30;;;2.60;99.90;;;;;;5072097;28;20257;-63
2023/02/06 00:56:16;;;;;;;11.17;9.30;;;2.60;99.90;;;;;;5071736;28;20189;-63
2023/02/06 00:58:41;;;;;;;9.00;8.40;;;2.50;99.90;;;;;;5071810;28;20244;-63
2023/02/06 01:01:07;;;;;;;9.03;7.93;;;2.50;99.90;;;;;;5071232;28;20204;-63
2023/02/06 01:03:33;;;;;;;8.20;7.67;;;2.40;99.90;;;;;;5071864;28;20225;-64
2023/02/06 01:05:58;;;;;;;8.40;7.73;;;2.40;99.90;;;;;;5071304;28;20201;-63
2023/02/06 01:08:24;;;;;;;12.00;7.70;;;2.30;99.90;;;;;;5071541;28;20174;-63
2023/02/06 01:10:50;;;;;;;9.33;8.47;;;2.30;99.90;;;;;;5070764;28;20196;-63
2023/02/06 01:13:15;;;;;;;11.10;8.87;;;2.30;99.90;;;;;;5071583;28;20632;-63
2023/02/06 01:15:41;;;;;;;22.83;8.23;;;2.20;99.90;;;;;;5071845;28;20702;-63
2023/02/06 01:18:06;;;;;;;12.97;8.80;;;2.20;99.90;;;;;;5071439;28;20181;-63
2023/02/06 01:20:33;;;;;;;8.03;7.43;;;2.20;99.90;;;;;;5071499;28;20686;-63
2023/02/06 01:22:58;;;;;;;8.20;7.67;;;2.20;99.90;;;;;;5071423;28;20663;-63
2023/02/06 01:25:24;;;;;;;8.70;7.90;;;2.10;99.90;;;;;;5071503;28;20205;-63
2023/02/06 01:27:49;;;;;;;7.53;7.23;;;2.00;99.90;;;;;;5071238;28;20174;-63
2023/02/06 01:30:15;;;;;;;16.03;8.60;;;2.00;99.90;;;;;;5071064;28;20190;-63
2023/02/06 01:32:41;;;;;;;27.70;9.03;;;2.00;99.90;;;;;;5071172;28;20166;-64
2023/02/06 01:35:09;;;;;;;9.83;8.43;;;1.90;99.90;;;;;;5071451;28;20182;-63
2023/02/06 01:37:36;;;;;;;9.07;8.27;;;1.80;99.90;;;;;;5071232;28;20174;-64
2023/02/06 01:40:03;;;;;;;10.07;9.00;;;1.70;99.90;;;;;;5071026;28;20213;-63
2023/02/06 01:42:28;;;;;;;9.43;8.53;;;1.60;99.90;;;;;;5071433;28;20174;-63
2023/02/06 01:45:25;;;;;;;9.80;8.53;;;1.60;99.90;;;;;;5071326;28;20736;-63
2023/02/06 01:48:00;;;;;;;22.33;9.70;;;1.50;99.90;;;;;;5071336;28;20301;-63
2023/02/06 01:50:27;;;;;;;9.97;8.97;;;1.40;99.90;;;;;;5070988;28;20204;-63
2023/02/06 01:52:53;;;;;;;10.63;8.57;;;1.50;99.90;;;;;;5070964;28;20670;-63
2023/02/06 01:55:18;;;;;;;11.07;9.87;;;1.40;99.90;;;;;;5071212;28;20171;-63
2023/02/06 01:57:44;;;;;;;27.87;9.70;;;1.40;99.90;;;;;;5071028;28;20197;-63
2023/02/06 02:00:11;;;;;;;9.70;8.97;;;1.30;99.90;;;;;;5070607;28;20642;-63
2023/02/06 02:02:41;;;;;;;17.23;8.30;;;1.30;99.90;;;;;;5070744;28;20181;-63
2023/02/06 02:05:09;;;;;;;9.37;8.67;;;1.30;99.90;;;;;;5070487;28;20210;-63
2023/02/06 02:07:41;;;;;;;14.80;10.00;;;1.30;99.90;;;;;;5071006;28;20694;-63
2023/02/06 02:10:07;;;;;;;9.97;8.63;;;1.30;99.90;;;;;;5070107;28;20251;-63
2023/02/06 02:12:33;;;;;;;8.43;7.80;;;1.30;99.90;;;;;;5069813;28;20216;-63
2023/02/06 02:14:58;;;;;;;21.67;9.03;;;1.30;99.90;;;;;;5070689;28;20545;-63
2023/02/06 02:17:39;;;;;;;11.37;8.40;;;1.30;99.90;;;;;;5070720;28;20182;-63
2023/02/06 02:20:44;;;;;;;8.03;7.70;;;1.30;99.90;;;;;;5070019;28;20206;-63
2023/02/06 02:23:34;;;;;;;10.10;9.03;;;1.30;99.90;;;;;;5071733;28;20311;-63
2023/02/06 02:26:23;;;;;;;10.47;9.33;;;1.30;99.90;;;;;;5072861;28;20670;-63
2023/02/06 02:28:48;;;;;;;11.13;9.40;;;1.40;99.90;;;;;;5074558;28;20171;-63
2023/02/06 02:31:14;;;;;;;8.53;8.10;;;1.40;99.90;;;;;;5073981;28;20185;-63
2023/02/06 02:34:00;;;;;;;10.30;8.60;;;1.40;99.90;;;;;;5074417;28;20182;-64
2023/02/06 02:36:42;;;;;;;10.10;9.17;;;1.40;99.90;;;;;;5074520;28;20185;-63
2023/02/06 02:39:21;;;;;;;10.13;9.53;;;1.40;99.90;;;;;;5073815;28;20221;-63
2023/02/06 02:42:12;;;;;;;10.80;9.33;;;1.30;99.90;;;;;;5074459;28;20200;-63
2023/02/06 02:44:51;;;;;;;16.20;9.70;;;1.30;99.90;;;;;;5054472;28;20237;-63
2023/02/06 02:47:20;;;;;;;13.90;9.07;;;1.20;99.90;;;;;;5056323;28;20604;-63
2023/02/06 02:49:46;;;;;;;10.87;9.80;;;1.20;99.90;;;;;;5073899;28;20198;-63
2023/02/06 02:52:12;;;;;;;10.30;9.17;;;1.10;99.90;;;;;;5073909;28;20207;-63
2023/02/06 02:54:38;;;;;;;11.77;10.43;;;1.00;99.90;;;;;;5074311;28;20558;-63
2023/02/06 02:57:09;;;;;;;20.47;9.77;;;1.00;99.90;;;;;;5074066;28;20179;-63
2023/02/06 02:59:56;;;;;;;13.17;9.17;;;1.00;99.90;;;;;;5072531;28;20206;-63
2023/02/06 03:02:25;;;;;;;10.47;8.47;;;1.00;99.90;;;;;;5072643;28;20166;-63
2023/02/06 03:05:04;;;;;;;8.27;7.70;;;1.00;99.90;;;;;;5073078;28;20232;-63
2023/02/06 03:08:11;;;;;;;15.53;8.60;;;1.10;99.90;;;;;;5072721;28;20166;-63
2023/02/06 03:11:00;;;;;;;10.70;8.03;;;1.10;99.90;;;;;;5069820;28;20775;-63
2023/02/06 03:13:47;;;;;;;8.30;7.90;;;1.20;99.90;;;;;;5070485;28;20270;-62
2023/02/06 03:16:15;;;;;;;13.47;8.33;;;1.20;99.90;;;;;;5073631;28;20333;-63
2023/02/06 03:19:10;;;;;;;8.40;7.70;;;1.20;99.90;;;;;;5073636;28;20180;-63
2023/02/06 03:21:38;;;;;;;10.53;8.30;;;1.20;99.90;;;;;;5070334;28;20210;-63
2023/02/06 03:24:08;;;;;;;9.00;8.07;;;1.20;99.90;;;;;;5073214;28;20202;-63
2023/02/06 03:26:36;;;;;;;8.67;8.03;;;1.20;99.90;;;;;;5073770;28;20169;-63
2023/02/06 03:29:05;;;;;;;9.90;7.93;;;1.20;99.90;;;;;;5073132;28;20170;-63
2023/02/06 03:31:40;;;;;;;14.93;8.27;;;1.10;99.90;;;;;;5073396;28;20173;-63
2023/02/06 03:34:46;;;;;;;9.70;8.67;;;1.10;99.90;;;;;;5072444;28;20364;-63
2023/02/06 03:37:11;;;;;;;11.93;8.10;;;1.00;99.90;;;;;;5068175;28;20189;-64
2023/02/06 03:39:38;;;;;;;9.03;8.17;;;0.90;99.90;;;;;;5072725;28;20218;-63
2023/02/06 03:42:05;;;;;;;9.07;8.57;;;0.80;99.90;;;;;;5073060;28;20646;-62
2023/02/06 03:44:34;;;;;;;10.87;8.67;;;0.80;99.90;;;;;;5072377;28;20675;-63
2023/02/06 03:47:02;;;;;;;8.00;7.50;;;0.70;99.90;;;;;;5073224;28;20300;-64
2023/02/06 03:49:30;;;;;;;8.57;7.57;;;0.70;99.90;;;;;;5072639;28;20574;-64
2023/02/06 03:52:05;;;;;;;15.30;8.37;;;0.70;99.90;;;;;;5073045;28;20162;-62
2023/02/06 03:54:33;;;;;;;8.17;7.57;;;0.70;99.90;;;;;;5072157;28;20205;-63
2023/02/06 03:57:01;;;;;;;9.00;8.37;;;0.60;99.90;;;;;;5072604;28;20516;-63
2023/02/06 03:59:28;;;;;;;8.67;7.67;;;0.60;99.90;;;;;;5072541;28;20736;-63
2023/02/06 04:01:56;;;;;;;14.80;7.97;;;0.70;99.90;;;;;;5073224;28;20185;-63
2023/02/06 04:04:27;;;;;;;12.80;8.27;;;0.70;99.90;;;;;;5072352;28;20205;-64
2023/02/06 04:07:06;;;;;;;16.90;9.93;;;0.70;99.90;;;;;;5072794;28;20173;-63
2023/02/06 04:09:31;;;;;;;7.87;7.47;;;0.70;99.90;;;;;;5072272;28;20185;-64
2023/02/06 04:11:57;;;;;;;19.73;9.33;;;0.80;99.90;;;;;;5072786;28;20174;-63
2023/02/06 04:14:23;;;;;;;8.63;7.87;;;0.80;99.90;;;;;;5072324;28;20173;-63
2023/02/06 04:16:48;;;;;;;8.67;8.23;;;0.80;99.90;;;;;;5071751;28;20256;-64
2023/02/06 04:19:14;;;;;;;8.00;7.40;;;0.70;99.90;;;;;;5070673;28;20667;-63
2023/02/06 04:21:39;;;;;;;8.90;8.13;;;0.60;99.90;;;;;;5072452;28;20173;-64
2023/02/06 04:24:05;;;;;;;15.60;8.13;;;0.60;99.90;;;;;;5071992;28;20198;-64
2023/02/06 04:26:31;;;;;;;10.83;8.13;;;0.60;99.90;;;;;;5052474;28;20194;-64
2023/02/06 04:28:56;;;;;;;8.20;7.60;;;0.60;99.90;;;;;;5051421;28;20256;-63
2023/02/06 04:31:22;;;;;;;13.33;8.37;;;0.60;99.90;;;;;;5069097;28;20522;-63
2023/02/06 04:33:48;;;;;;;8.40;7.70;;;0.50;99.90;;;;;;5072356;28;20182;-63
2023/02/06 04:36:14;;;;;;;7.80;7.20;;;0.50;99.90;;;;;;5071669;28;20182;-63
2023/02/06 04:38:39;;;;;;;10.40;7.93;;;0.40;99.90;;;;;;5072120;28;20170;-64
2023/02/06 04:41:06;;;;;;;8.60;7.83;;;0.40;99.90;;;;;;5071594;28;20219;-64
2023/02/06 04:43:32;;;;;;;12.33;6.73;;;0.30;99.90;;;;;;5072010;28;20201;-64
2023/02/06 04:45:58;;;;;;;9.67;9.07;;;0.20;99.90;;;;;;5070954;28;20658;-63
2023/02/06 04:48:24;;;;;;;7.60;7.10;;;0.20;99.90;;;;;;5071883;28;20178;-64
2023/02/06 04:50:50;;;;;;;12.87;7.70;;;0.10;99.90;;;;;;5071331;28;20196;-64
2023/02/06 04:53:16;;;;;;;13.43;8.43;;;0.20;99.90;;;;;;5071829;28;20170;-63
2023/02/06 04:55:41;;;;;;;17.83;8.20;;;0.30;99.90;;;;;;5071682;28;20188;-63
2023/02/06 04:58:07;;;;;;;11.87;8.70;;;0.30;99.90;;;;;;5071631;28;20643;-63
2023/02/06 05:00:33;;;;;;;8.43;7.63;;;0.30;99.90;;;;;;5071324;28;20251;-63
2023/02/06 05:02:58;;;;;;;8.47;7.63;;;0.40;99.90;;;;;;5071688;28;20170;-63
2023/02/06 05:05:24;;;;;;;24.13;8.93;;;0.50;99.90;;;;;;5071589;28;20280;-63
2023/02/06 05:07:49;;;;;;;8.50;7.90;;;0.60;99.90;;;;;;5071720;28;20254;-63
2023/02/06 05:10:15;;;;;;;8.67;7.97;;;0.60;99.90;;;;;;5071286;28;20590;-63
2023/02/06 05:12:41;;;;;;;11.50;7.93;;;0.70;99.90;;;;;;5071591;28;20178;-63
2023/02/06 05:15:07;;;;;;;9.23;8.37;;;0.70;99.90;;;;;;5071256;28;20178;-63
2023/02/06 05:17:33;;;;;;;27.97;10.13;;;0.60;99.90;;;;;;5071805;28;20631;-63
2023/02/06 05:19:58;;;;;;;8.80;8.03;;;0.60;99.90;;;;;;5070900;28;20213;-63
2023/02/06 05:22:24;;;;;;;10.80;9.90;;;0.60;99.90;;;;;;5071655;28;20466;-63
2023/02/06 05:24:50;;;;;;;9.97;9.03;;;0.60;99.90;;;;;;5071112;28;20209;-63
2023/02/06 05:27:15;;;;;;;11.37;8.27;;;0.70;99.90;;;;;;5071293;28;20170;-65
2023/02/06 05:29:41;;;;;;;8.40;8.00;;;0.80;99.90;;;;;;5070923;28;20201;-63
2023/02/06 05:32:07;;;;;;;8.43;8.03;;;0.90;99.90;;;;;;5071388;28;20637;-63
2023/02/06 05:34:32;;;;;;;22.23;9.10;;;0.90;99.90;;;;;;5071136;28;20178;-63
2023/02/06 05:36:58;;;;;;;13.13;8.07;;;1.00;99.90;;;;;;5071372;28;20167;-63
2023/02/06 05:39:24;;;;;;;9.47;8.53;;;1.10;99.90;;;;;;5070580;28;20582;-63
2023/02/06 05:41:49;;;;;;;9.87;9.03;;;1.10;99.90;;;;;;5071290;28;20170;-63
2023/02/06 05:44:15;;;;;;;12.67;8.63;;;1.20;99.90;;;;;;5070647;28;20748;-64
2023/02/06 05:46:41;;;;;;;11.83;9.20;;;1.30;99.90;;;;;;5071370;28;20173;-62
2023/02/06 05:49:06;;;;;;;9.87;8.90;;;1.30;99.90;;;;;;5070697;28;20586;-63
2023/02/06 05:51:32;;;;;;;15.20;9.80;;;1.20;99.90;;;;;;5071353;28;20178;-63
2023/02/06 05:53:58;;;;;;;12.43;11.00;;;1.20;99.90;;;;;;5071295;28;20198;-63
2023/02/06 05:56:23;;;;;;;11.00;10.00;;;1.20;99.90;;;;;;5072324;28;20285;-63
2023/02/06 05:58:49;;;;;;;11.37;10.60;;;1.20;99.90;;;;;;5075096;28;20185;-64
2023/02/06 06:01:15;;;;;;;14.63;10.03;;;1.20;99.90;;;;;;5074783;28;20189;-64
2023/02/06 06:03:40;;;;;;;10.87;9.97;;;1.20;99.90;;;;;;5074823;28;20228;-64
2023/02/06 06:06:06;;;;;;;12.07;10.77;;;1.20;99.90;;;;;;5074966;28;20197;-64
2023/02/06 06:08:32;;;;;;;19.43;9.23;;;1.20;99.90;;;;;;5074877;28;20174;-64
2023/02/06 06:10:57;;;;;;;13.03;10.60;;;1.20;99.90;;;;;;5074647;28;20543;-62
2023/02/06 06:13:23;;;;;;;11.23;9.77;;;1.20;99.90;;;;;;5075045;28;20174;-63
2023/02/06 06:15:50;;;;;;;13.33;11.37;;;1.30;99.90;;;;;;5075292;28;20643;-63
2023/02/06 06:18:16;;;;;;;11.17;10.33;;;1.30;99.90;;;;;;5074758;28;20170;-62
2023/02/06 06:20:42;;;;;;;10.63;9.87;;;1.30;99.90;;;;;;5074599;28;20702;-64
2023/02/06 06:23:07;;;;;;;11.30;9.87;;;1.30;99.90;;;;;;5074620;28;20185;-63
2023/02/06 06:25:34;;;;;;;10.00;9.17;;;1.30;99.90;;;;;;5075011;28;20294;-63
2023/02/06 06:28:00;;;;;;;18.67;9.83;;;1.30;99.90;;;;;;5074824;28;20682;-64
2023/02/06 06:30:26;;;;;;;9.93;9.00;;;1.40;99.90;;;;;;5074295;28;20190;-64
2023/02/06 06:32:52;;;;;;;14.20;12.83;;;1.40;99.90;;;;;;5074379;28;20640;-63
2023/02/06 06:35:17;;;;;;;12.53;11.17;;;1.40;99.90;;;;;;5074453;28;20527;-63
2023/02/06 06:37:43;;;;;;;18.60;9.33;;;1.40;99.90;;;;;;5074239;28;20189;-64
2023/02/06 06:40:09;;;;;;;11.23;8.33;;;1.50;99.90;;;;;;5074063;28;20206;-63
2023/02/06 06:42:35;;;;;;;28.27;11.40;;;1.50;99.90;;;;;;5072772;28;20265;-63
2023/02/06 06:45:00;;;;;;;22.83;9.70;;;1.60;99.90;;;;;;5074562;28;20301;-63
2023/02/06 06:47:26;;;;;;;16.60;11.23;;;1.60;99.90;;;;;;5074011;28;20607;-64
2023/02/06 06:49:51;;;;;;;12.40;10.93;;;1.60;99.90;;;;;;5073975;28;20668;-64
2023/02/06 06:52:17;;;;;;;11.10;9.97;;;1.70;99.90;;;;;;5073754;28;20198;-63
2023/02/06 06:54:43;;;;;;;12.00;9.23;;;1.70;99.90;;;;;;5074542;28;20594;-63
2023/02/06 06:57:09;;;;;;;20.10;10.53;;;1.80;99.90;;;;;;5073904;28;20708;-63
2023/02/06 06:59:34;;;;;;;10.73;9.57;;;1.80;99.90;;;;;;5073831;28;20228;-63
2023/02/06 07:02:00;;;;;;;13.67;9.63;;;1.80;99.90;;;;;;5072030;28;20224;-64
2023/02/06 07:04:29;;;;;;;10.47;9.33;;;1.80;99.90;;;;;;5054537;28;20752;-64
2023/02/06 07:06:55;;;;;;;15.87;10.93;;;1.80;99.90;;;;;;5071214;28;20178;-63
2023/02/06 07:09:20;;;;;;;14.73;10.37;;;1.80;99.90;;;;;;5072543;28;20198;-64
2023/02/06 07:11:46;;;;;;;39.43;10.97;;;1.90;99.90;;;;;;5073492;28;20208;-64
2023/02/06 07:14:12;;;;;;;11.37;9.50;;;1.90;99.90;;;;;;5073722;28;20178;-63
2023/02/06 07:16:37;;;;;;;13.53;10.07;;;1.90;99.90;;;;;;5073796;28;20189;-64
2023/02/06 07:19:03;;;;;;;18.80;10.97;;;2.00;99.90;;;;;;5073352;28;20189;-64
2023/02/06 07:21:28;;;;;;;15.73;11.17;;;2.00;99.90;;;;;;5073096;28;20182;-64
2023/02/06 07:23:54;;;;;;;18.87;10.37;;;2.00;99.90;;;;;;5072272;28;20255;-64
2023/02/06 07:26:20;;;;;;;19.47;11.00;;;2.00;99.90;;;;;;5073008;28;20551;-64
2023/02/06 07:28:48;;;;;;;13.33;10.77;;;2.10;99.90;;;;;;5073542;28;20176;-64
2023/02/06 07:31:14;;;;;;;16.20;10.90;;;2.20;99.90;;;;;;5072770;28;20686;-64
2023/02/06 07:33:40;;;;;;;15.00;9.43;;;2.30;99.90;;;;;;5073457;28;20254;-63
2023/02/06 07:36:12;;;;;;;11.20;10.20;;;2.30;99.90;;;;;;5072913;28;20265;-64
2023/02/06 07:38:38;;;;;;;23.60;10.83;;;2.30;99.90;;;;;;5073510;28;20165;-64
2023/02/06 07:41:05;;;;;;;10.37;9.47;;;2.30;99.90;;;;;;5072744;28;20247;-64
2023/02/06 07:43:31;;;;;;;22.00;12.33;;;2.30;99.90;;;;;;5071978;28;20546;-64
2023/02/06 07:46:01;;;;;;;13.57;12.40;;;2.30;99.90;;;;;;5073105;28;20178;-64
2023/02/06 07:48:27;;;;;;;10.30;9.27;;;2.30;99.90;;;;;;5072637;28;20185;-63
2023/02/06 07:50:53;;;;;;;11.50;10.50;;;2.30;99.90;;;;;;5068072;28;20288;-63
2023/02/06 07:53:19;;;;;;;12.80;11.03;;;2.30;99.90;;;;;;5072879;28;20205;-63
2023/02/06 07:55:45;;;;;;;16.80;10.03;;;2.30;99.90;;;;;;5072534;28;20185;-64
2023/02/06 07:58:11;;;;;;;12.87;10.37;;;2.30;99.90;;;;;;5072568;28;20631;-63
2023/02/06 08:00:38;;;;;;;11.03;9.10;;;2.30;99.90;;;;;;5072383;28;20190;-64
2023/02/06 08:03:04;;;;;;;17.53;9.00;;;2.30;99.90;;;;;;5072223;28;20227;-64
2023/02/06 08:05:30;;;;;;;10.40;9.47;;;2.30;99.90;;;;;;5072520;28;20194;-64
2023/02/06 08:07:56;;;;;;;12.27;11.17;;;2.30;99.90;;;;;;5072614;28;20169;-64
2023/02/06 08:10:22;;;;;;;10.90;10.00;;;2.40;99.90;;;;;;5071923;28;20571;-65
2023/02/06 08:12:47;;;;;;;17.20;10.73;;;2.40;99.90;;;;;;5072699;28;20166;-63
2023/02/06 08:15:13;;;;;;;9.67;8.77;;;2.40;99.90;;;;;;5072188;28;20182;-64
2023/02/06 08:17:41;;;;;;;13.53;9.77;;;2.40;99.90;;;;;;5072874;28;20189;-64
2023/02/06 08:20:08;;;;;;;10.00;9.33;;;2.40;99.90;;;;;;5065300;28;20331;-64
2023/02/06 08:22:33;;;;;;;11.20;9.73;;;2.40;99.90;;;;;;5072518;28;20197;-63
2023/02/06 08:24:59;;;;;;;19.23;10.77;;;2.40;99.90;;;;;;5071905;28;20237;-64
2023/02/06 08:27:26;;;;;;;9.43;8.50;;;2.40;99.90;;;;;;5072298;28;20170;-64
2023/02/06 08:29:52;;;;;;;18.07;11.33;;;2.50;99.90;;;;;;5071610;28;20601;-64
2023/02/06 08:32:17;;;;;;;15.00;9.63;;;2.60;99.90;;;;;;5072010;28;20166;-64
2023/02/06 08:34:43;;;;;;;10.27;9.27;;;2.80;99.90;;;;;;5071917;28;20205;-64
2023/02/06 08:37:09;;;;;;;15.83;8.57;;;2.70;99.90;;;;;;5070744;28;20185;-64
2023/02/06 08:39:35;;;;;;;11.07;9.10;;;2.70;99.90;;;;;;5071498;28;20233;-64
2023/02/06 08:42:00;;;;;;;17.00;10.37;;;2.70;99.90;;;;;;5072137;28;20181;-64
2023/02/06 08:44:26;;;;;;;16.73;10.97;;;2.60;99.90;;;;;;5071759;28;20210;-63
2023/02/06 08:46:52;;;;;;;17.73;12.13;;;2.60;99.90;;;;;;5071856;28;20166;-64
2023/02/06 08:49:20;;;;;;;21.40;11.23;;;2.70;99.90;;;;;;5071187;28;20190;-63
2023/02/06 08:51:49;;;;;;;14.93;10.67;;;2.80;99.90;;;;;;5069138;28;20450;-62
2023/02/06 08:54:17;;;;;;;22.40;10.00;;;2.90;99.90;;;;;;5064354;28;20181;-63
2023/02/06 08:56:42;;;;;;;12.37;9.67;;;2.90;99.90;;;;;;5071342;28;20257;-63
2023/02/06 08:59:09;;;;;;;12.50;10.43;;;2.90;99.90;;;;;;5070000;28;20247;-64
2023/02/06 09:01:36;;;;;;;12.23;10.70;;;2.90;99.90;;;;;;5070381;28;20178;-63
2023/02/06 09:04:05;;;;;;;17.93;11.37;;;3.00;99.90;;;;;;5070693;28;20566;-63
2023/02/06 09:06:31;;;;;;;19.37;13.63;;;3.20;99.90;;;;;;5069829;28;20174;-63
2023/02/06 09:08:57;;;;;;;16.37;13.73;;;3.30;99.90;;;;;;5069532;28;20174;-63
2023/02/06 09:11:24;;;;;;;26.30;13.03;;;3.30;99.90;;;;;;5070040;28;20173;-63
2023/02/06 09:13:52;;;;;;;24.83;14.23;;;3.30;99.90;;;;;;5070597;28;20178;-63
2023/02/06 09:16:19;;;;;;;15.60;11.57;;;3.30;99.90;;;;;;5071326;28;20166;-62
2023/02/06 09:18:45;;;;;;;15.20;12.73;;;3.30;99.90;;;;;;5071543;28;20655;-63
2023/02/06 09:21:17;;;;;;;22.13;14.10;;;3.30;99.90;;;;;;5071226;28;20190;-62
2023/02/06 09:23:45;;;;;;;18.23;14.87;;;3.40;99.90;;;;;;5071523;28;20166;-63
2023/02/06 09:26:12;;;;;;;21.87;15.93;;;3.50;99.90;;;;;;5071078;28;20181;-63
2023/02/06 09:28:38;;;;;;;19.90;16.23;;;3.60;99.90;;;;;;5071310;28;20212;-63
2023/02/06 09:31:06;;;;;;;25.03;16.73;;;3.60;99.90;;;;;;5070384;28;20189;-63
2023/02/06 09:33:32;;;;;;;21.57;15.63;;;3.60;99.90;;;;;;5071455;28;20197;-63
2023/02/06 09:36:08;;;;;;;22.67;14.43;;;3.60;99.90;;;;;;5071037;28;20690;-63
2023/02/06 09:38:37;;;;;;;20.90;14.80;;;3.60;99.90;;;;;;5071049;28;20650;-63
2023/02/06 09:41:05;;;;;;;24.83;14.70;;;3.70;99.90;;;;;;5070637;28;20292;-63
2023/02/06 09:43:32;;;;;;;13.63;12.33;;;3.80;99.90;;;;;;5070021;28;20264;-62
2023/02/06 09:46:01;;;;;;;17.73;14.30;;;3.90;99.90;;;;;;5071428;28;20174;-63
2023/02/06 09:48:31;;;;;;;23.30;12.87;;;3.90;99.90;;;;;;5071192;28;20174;-63
2023/02/06 09:51:31;;;;;;;19.40;11.57;;;4.00;99.90;;;;;;5070665;28;20407;-63
2023/02/06 09:53:59;;;;;;;25.30;11.77;;;4.10;99.90;;;;;;5070796;28;20182;-63
2023/02/06 09:56:53;;;;;;;14.87;11.53;;;4.30;99.90;;;;;;5070786;28;20219;-63
2023/02/06 09:59:57;;;;;;;21.27;11.13;;;4.60;99.90;;;;;;5070890;28;20194;-63
2023/02/06 10:02:50;;;;;;;15.90;11.50;;;4.80;99.90;;;;;;5072065;28;20231;-63
2023/02/06 10:05:32;;;;;;;17.60;10.53;;;4.90;99.90;;;;;;5071628;28;20224;-63
2023/02/06 10:08:17;;;;;;;18.07;11.60;;;5.10;99.90;;;;;;5070769;28;20303;-63
2023/02/06 10:10:54;;;;;;;11.73;10.60;;;5.20;99.90;;;;;;5070474;28;20198;-63
2023/02/06 10:13:34;;;;;;;17.20;11.90;;;5.10;99.90;;;;;;5071386;28;20184;-63
2023/02/06 10:16:05;;;;;;;20.20;11.80;;;5.20;99.90;;;;;;5070962;28;20181;-63
2023/02/06 10:18:44;;;;;;;12.33;10.40;;;5.40;99.90;;;;;;5069786;28;20181;-63
2023/02/06 10:21:41;;;;;;;15.80;10.70;;;5.40;99.90;;;;;;5070283;28;20268;-63
2023/02/06 10:24:28;;;;;;;31.07;10.90;;;5.60;99.90;;;;;;5069786;28;20218;-63
2023/02/06 10:26:58;;;;;;;15.87;11.43;;;5.90;99.90;;;;;;5054015;28;20179;-63
2023/02/06 10:29:27;;;;;;;22.67;11.67;;;6.20;99.90;;;;;;5050511;28;20195;-63
2023/02/06 10:32:27;;;;;;;18.50;13.07;;;6.50;99.90;;;;;;5050708;28;20167;-63
2023/02/06 10:35:14;;;;;;;24.70;13.37;;;6.80;99.90;;;;;;5050758;28;20183;-63
2023/02/06 10:38:04;;;;;;;16.40;12.37;;;6.90;99.90;;;;;;5050835;28;20175;-63
2023/02/06 10:40:48;;;;;;;23.33;12.57;;;6.80;99.90;;;;;;5050280;28;20207;-63
2023/02/06 10:43:25;;;;;;;23.40;13.23;;;6.70;99.90;;;;;;5051600;28;20535;-63
2023/02/06 10:46:03;;;;;;;26.03;12.50;;;6.50;99.90;;;;;;5054649;28;20202;-63
2023/02/06 10:48:41;;;;;;;14.57;10.83;;;6.40;99.90;;;;;;5054352;28;20531;-63
2023/02/06 10:51:17;;;;;;;19.30;12.40;;;6.40;99.90;;;;;;5053854;28;20607;-63
2023/02/06 10:53:52;;;;;;;16.77;12.07;;;6.50;99.90;;;;;;5054485;28;20198;-63
2023/02/06 10:56:23;;;;;;;25.70;12.70;;;6.60;99.90;;;;;;5054101;28;20300;-63
2023/02/06 10:59:18;;;;;;;14.33;11.13;;;6.70;99.90;;;;;;5052868;28;20714;-63
2023/02/06 11:01:46;;;;;;;16.53;13.17;;;6.80;99.90;;;;;;5057588;28;20201;-63
2023/02/06 11:04:39;;;;;;;20.57;12.53;;;6.80;99.90;;;;;;5053951;28;20194;-63
2023/02/06 11:07:23;;;;;;;22.40;10.03;;;6.80;99.90;;;;;;5055523;28;20195;-63
2023/02/06 11:09:50;;;;;;;11.20;9.97;;;6.80;98.80;;;;;;5059795;28;20744;-63
2023/02/06 11:12:28;;;;;;;12.50;11.07;;;6.70;70.70;;;;;;5074300;28;20524;-63
2023/02/06 11:14:56;;;;;;;14.97;9.60;;;6.60;99.60;;;;;;5074174;28;20174;-63
2023/02/06 11:17:27;;;;;;;20.33;10.50;;;6.40;92.10;;;;;;5054938;28;20518;-63
2023/02/06 11:19:57;;;;;;;14.93;10.90;;;6.50;99.90;;;;;;5053430;28;20750;-63
2023/02/06 11:22:29;;;;;;;16.00;10.90;;;7.20;99.90;;;;;;5052671;28;20497;-63
2023/02/06 11:25:04;;;;;;;17.47;10.03;;;7.70;87.90;;;;;;5053751;28;20210;-63
2023/02/06 11:27:32;;;;;;;12.10;10.47;;;7.80;12.40;;;;;;5072531;28;20173;-63
2023/02/06 11:30:06;;;;;;;11.97;10.10;;;7.80;1.00;;;;;;5072810;28;20190;-63
2023/02/06 11:32:36;;;;;;;11.60;9.97;;;8.00;36.50;;;;;;5073448;28;20173;-63
2023/02/06 11:35:22;;;;;;;11.50;9.63;;;8.60;1.00;;;;;;5073344;28;20182;-63
2023/02/06 11:37:52;;;;;;;11.33;10.27;;;9.00;1.00;;;;;;5073563;28;20178;-64
2023/02/06 11:40:18;;;;;;;15.77;12.33;;;8.90;99.90;;;;;;5072604;28;20221;-64
2023/02/06 11:42:53;;;;;;;14.80;10.77;;;8.50;99.90;;;;;;5073371;28;20652;-64
2023/02/06 11:45:31;;;;;;;13.27;11.53;;;8.50;1.00;;;;;;5073075;28;20705;-64
2023/02/06 11:47:58;;;;;;;14.53;9.83;;;8.60;99.90;;;;;;5073431;28;20319;-63
2023/02/06 11:50:27;;;;;;;15.37;10.10;;;8.80;99.90;;;;;;5072414;28;20282;-63
2023/02/06 11:53:16;;;;;;;14.43;9.87;;;9.10;99.90;;;;;;5073355;28;20703;-63
2023/02/06 11:55:44;;;;;;;13.83;9.90;;;9.30;99.90;;;;;;5072543;28;20521;-63
2023/02/06 11:58:13;;;;;;;12.00;9.27;;;9.30;1.00;;;;;;5072416;28;20223;-63
2023/02/06 12:01:05;;;;;;;29.80;15.47;;;9.10;1.00;;;;;;5072548;28;20263;-64
2023/02/06 12:03:54;;;;;;;16.57;10.20;;;8.80;1.00;;;;;;5067876;28;20188;-63
2023/02/06 12:06:32;;;;;;;11.17;9.20;;;8.30;5.10;;;;;;5072640;28;20190;-63
2023/02/06 12:09:00;;;;;;;24.33;12.10;;;7.80;99.90;;;;;;5072776;28;20514;-63
2023/02/06 12:11:56;;;;;;;11.83;10.63;;;7.30;99.90;;;;;;5072613;28;20233;-63
2023/02/06 12:14:37;;;;;;;13.20;8.80;;;6.90;99.90;;;;;;5071641;28;20202;-63
2023/02/06 12:17:08;;;;;;;11.27;10.10;;;6.60;99.90;;;;;;5072691;28;20178;-64
2023/02/06 12:19:44;;;;;;;13.33;9.40;;;6.50;1.00;;;;;;5072000;28;20198;-63
2023/02/06 12:22:19;;;;;;;13.73;9.90;;;6.60;1.00;;;;;;5072504;28;20209;-63
2023/02/06 12:24:52;;;;;;;14.30;10.13;;;6.90;1.00;;;;;;5072028;28;20610;-63
2023/02/06 12:27:28;;;;;;;10.80;9.67;;;7.30;1.00;;;;;;5072511;28;20181;-63
2023/02/06 12:30:24;;;;;;;13.97;10.17;;;7.60;1.00;;;;;;5071809;28;20197;-63
2023/02/06 12:32:57;;;;;;;18.30;10.77;;;7.70;1.00;;;;;;5072478;28;20634;-63
2023/02/06 12:35:29;;;;;;;36.53;20.67;;;7.50;1.00;;;;;;5072177;28;20579;-63
2023/02/06 12:38:00;;;;;;;25.33;15.50;;;7.20;1.00;;;;;;5071265;28;20199;-64
2023/02/06 12:40:37;;;;;;;27.90;12.93;;;7.10;1.00;;;;;;5071558;28;20287;-64
2023/02/06 12:43:08;;;;;;;25.40;13.93;;;7.20;1.00;;;;;;5072180;28;20178;-63
2023/02/06 12:45:39;;;;;;;18.00;9.57;;;7.40;1.00;;;;;;5071968;28;20263;-63
2023/02/06 12:48:34;;;;;;;13.87;9.60;;;8.00;1.00;;;;;;5071836;28;20182;-63
2023/02/06 12:51:05;;;;;;;12.07;8.20;;;8.70;99.90;;;;;;5072065;28;20201;-65
2023/02/06 12:53:43;;;;;;;9.17;8.27;;;8.70;99.90;;;;;;5071813;28;20182;-63
2023/02/06 12:56:29;;;;;;;11.87;8.70;;;8.60;99.90;;;;;;5071942;28;20197;-63
2023/02/06 12:59:01;;;;;;;10.47;9.00;;;8.30;99.90;;;;;;5052016;28;20174;-63
2023/02/06 13:01:56;;;;;;;11.10;9.97;;;8.00;1.00;;;;;;5052893;28;20705;-63